sensor_id;sensor_type;location;lat;lon;timestamp;P1;durP1;ratioP1;P2;durP2;ratioP2
15043;SDS011;7619;48.562;8.910;2023-11-21T00:00:31;1.53;;;1.40;;
15043;SDS011;7619;48.562;8.910;2023-11-21T00:03:00;3.07;;;1.47;;
15043;SDS011;7619;48.562;8.910;2023-11-21T00:05:29;2.70;;;1.20;;
15043;SDS011;7619;48.562;8.910;2023-11-21T00:07:57;3.87;;;1.70;;
15043;SDS011;7619;48.562;8.910;2023-11-21T00:10:25;2.73;;;1.23;;
15043;SDS011;7619;48.562;8.910;2023-11-21T00:12:55;6.97;;;1.83;;
15043;SDS011;7619;48.562;8.910;2023-11-21T00:15:23;2.83;;;1.30;;
15043;SDS011;7619;48.562;8.910;2023-11-21T00:17:53;5.73;;;1.17;;
15043;SDS011;7619;48.562;8.910;2023-11-21T00:20:21;1.77;;;1.10;;
15043;SDS011;7619;48.562;8.910;2023-11-21T00:22:49;5.17;;;1.47;;
15043;SDS011;7619;48.562;8.910;2023-11-21T00:25:18;3.17;;;1.00;;
15043;SDS011;7619;48.562;8.910;2023-11-21T00:27:46;1.67;;;1.10;;
15043;SDS011;7619;48.562;8.910;2023-11-21T00:30:15;5.87;;;1.27;;
15043;SDS011;7619;48.562;8.910;2023-11-21T00:32:43;3.30;;;1.43;;
15043;SDS011;7619;48.562;8.910;2023-11-21T00:35:11;3.17;;;1.33;;
15043;SDS011;7619;48.562;8.910;2023-11-21T00:37:40;1.77;;;0.97;;
15043;SDS011;7619;48.562;8.910;2023-11-21T00:40:10;3.60;;;1.07;;
15043;SDS011;7619;48.562;8.910;2023-11-21T00:42:39;3.13;;;1.40;;
15043;SDS011;7619;48.562;8.910;2023-11-21T00:45:10;2.37;;;1.30;;
15043;SDS011;7619;48.562;8.910;2023-11-21T00:47:38;5.33;;;1.40;;
15043;SDS011;7619;48.562;8.910;2023-11-21T00:50:07;3.50;;;1.63;;
15043;SDS011;7619;48.562;8.910;2023-11-21T00:52:36;3.00;;;1.10;;
15043;SDS011;7619;48.562;8.910;2023-11-21T00:55:05;5.80;;;1.50;;
15043;SDS011;7619;48.562;8.910;2023-11-21T00:57:34;5.40;;;1.47;;
15043;SDS011;7619;48.562;8.910;2023-11-21T01:00:02;1.63;;;1.10;;
15043;SDS011;7619;48.562;8.910;2023-11-21T01:02:34;1.20;;;1.10;;
15043;SDS011;7619;48.562;8.910;2023-11-21T01:05:03;3.07;;;1.10;;
15043;SDS011;7619;48.562;8.910;2023-11-21T01:07:34;2.83;;;1.00;;
15043;SDS011;7619;48.562;8.910;2023-11-21T01:10:03;3.73;;;1.07;;
15043;SDS011;7619;48.562;8.910;2023-11-21T01:12:34;2.53;;;1.13;;
15043;SDS011;7619;48.562;8.910;2023-11-21T01:15:04;4.40;;;1.40;;
15043;SDS011;7619;48.562;8.910;2023-11-21T01:17:34;4.30;;;1.30;;
15043;SDS011;7619;48.562;8.910;2023-11-21T01:20:03;2.13;;;1.40;;
15043;SDS011;7619;48.562;8.910;2023-11-21T01:22:33;4.37;;;1.00;;
15043;SDS011;7619;48.562;8.910;2023-11-21T01:25:02;2.97;;;1.30;;
15043;SDS011;7619;48.562;8.910;2023-11-21T01:27:31;3.40;;;0.90;;
15043;SDS011;7619;48.562;8.910;2023-11-21T01:29:59;1.03;;;0.80;;
15043;SDS011;7619;48.562;8.910;2023-11-21T01:32:28;2.50;;;1.13;;
15043;SDS011;7619;48.562;8.910;2023-11-21T01:34:56;3.53;;;0.90;;
15043;SDS011;7619;48.562;8.910;2023-11-21T01:37:24;2.27;;;0.90;;
15043;SDS011;7619;48.562;8.910;2023-11-21T01:39:54;6.90;;;1.17;;
15043;SDS011;7619;48.562;8.910;2023-11-21T01:42:22;1.83;;;1.03;;
15043;SDS011;7619;48.562;8.910;2023-11-21T01:44:51;0.93;;;0.90;;
15043;SDS011;7619;48.562;8.910;2023-11-21T01:47:20;3.10;;;0.77;;
15043;SDS011;7619;48.562;8.910;2023-11-21T01:49:48;6.23;;;0.93;;
15043;SDS011;7619;48.562;8.910;2023-11-21T01:52:17;3.23;;;0.67;;
15043;SDS011;7619;48.562;8.910;2023-11-21T01:54:46;1.60;;;0.80;;
15043;SDS011;7619;48.562;8.910;2023-11-21T01:57:14;2.97;;;1.00;;
15043;SDS011;7619;48.562;8.910;2023-11-21T01:59:42;4.63;;;0.80;;
15043;SDS011;7619;48.562;8.910;2023-11-21T02:02:12;1.07;;;0.70;;
15043;SDS011;7619;48.562;8.910;2023-11-21T02:04:40;2.83;;;2.00;;
15043;SDS011;7619;48.562;8.910;2023-11-21T02:07:09;1.37;;;0.80;;
15043;SDS011;7619;48.562;8.910;2023-11-21T02:09:37;0.77;;;0.73;;
15043;SDS011;7619;48.562;8.910;2023-11-21T02:12:07;1.63;;;0.67;;
15043;SDS011;7619;48.562;8.910;2023-11-21T02:14:37;2.53;;;0.87;;
15043;SDS011;7619;48.562;8.910;2023-11-21T02:17:05;2.93;;;0.70;;
15043;SDS011;7619;48.562;8.910;2023-11-21T02:19:34;2.60;;;1.07;;
15043;SDS011;7619;48.562;8.910;2023-11-21T02:22:03;0.50;;;0.50;;
15043;SDS011;7619;48.562;8.910;2023-11-21T02:24:33;1.13;;;0.70;;
15043;SDS011;7619;48.562;8.910;2023-11-21T02:27:01;0.60;;;0.60;;
15043;SDS011;7619;48.562;8.910;2023-11-21T02:29:29;2.37;;;0.80;;
15043;SDS011;7619;48.562;8.910;2023-11-21T02:31:57;3.53;;;0.90;;
15043;SDS011;7619;48.562;8.910;2023-11-21T02:34:26;3.90;;;1.00;;
15043;SDS011;7619;48.562;8.910;2023-11-21T02:36:54;2.37;;;0.70;;
15043;SDS011;7619;48.562;8.910;2023-11-21T02:39:24;2.60;;;0.43;;
15043;SDS011;7619;48.562;8.910;2023-11-21T02:41:52;0.53;;;0.43;;
15043;SDS011;7619;48.562;8.910;2023-11-21T02:44:20;1.57;;;0.80;;
15043;SDS011;7619;48.562;8.910;2023-11-21T02:46:49;0.93;;;0.50;;
15043;SDS011;7619;48.562;8.910;2023-11-21T02:49:17;3.40;;;0.90;;
15043;SDS011;7619;48.562;8.910;2023-11-21T02:51:45;3.77;;;0.83;;
15043;SDS011;7619;48.562;8.910;2023-11-21T02:54:13;1.57;;;0.47;;
15043;SDS011;7619;48.562;8.910;2023-11-21T02:56:43;0.27;;;0.27;;
15043;SDS011;7619;48.562;8.910;2023-11-21T02:59:12;0.43;;;0.40;;
15043;SDS011;7619;48.562;8.910;2023-11-21T03:01:41;0.43;;;0.43;;
15043;SDS011;7619;48.562;8.910;2023-11-21T03:04:09;1.33;;;0.60;;
15043;SDS011;7619;48.562;8.910;2023-11-21T03:06:37;1.30;;;0.67;;
15043;SDS011;7619;48.562;8.910;2023-11-21T03:09:06;0.83;;;0.47;;
15043;SDS011;7619;48.562;8.910;2023-11-21T03:11:34;0.63;;;0.50;;
15043;SDS011;7619;48.562;8.910;2023-11-21T03:14:02;3.67;;;0.60;;
15043;SDS011;7619;48.562;8.910;2023-11-21T03:16:31;2.43;;;0.50;;
15043;SDS011;7619;48.562;8.910;2023-11-21T03:18:59;0.70;;;0.47;;
15043;SDS011;7619;48.562;8.910;2023-11-21T03:21:27;1.37;;;0.53;;
15043;SDS011;7619;48.562;8.910;2023-11-21T03:23:57;1.43;;;0.60;;
15043;SDS011;7619;48.562;8.910;2023-11-21T03:26:26;2.87;;;0.60;;
15043;SDS011;7619;48.562;8.910;2023-11-21T03:28:54;0.50;;;0.40;;
15043;SDS011;7619;48.562;8.910;2023-11-21T03:31:23;0.20;;;0.20;;
15043;SDS011;7619;48.562;8.910;2023-11-21T03:33:51;3.73;;;0.53;;
15043;SDS011;7619;48.562;8.910;2023-11-21T03:36:20;0.60;;;0.47;;
15043;SDS011;7619;48.562;8.910;2023-11-21T03:38:48;0.93;;;0.60;;
15043;SDS011;7619;48.562;8.910;2023-11-21T03:41:16;1.13;;;0.70;;
15043;SDS011;7619;48.562;8.910;2023-11-21T03:43:45;2.33;;;0.80;;
15043;SDS011;7619;48.562;8.910;2023-11-21T03:46:13;1.50;;;1.17;;
15043;SDS011;7619;48.562;8.910;2023-11-21T03:48:41;2.13;;;0.53;;
15043;SDS011;7619;48.562;8.910;2023-11-21T03:51:10;0.77;;;0.77;;
15043;SDS011;7619;48.562;8.910;2023-11-21T03:53:38;2.53;;;0.43;;
15043;SDS011;7619;48.562;8.910;2023-11-21T03:56:07;0.50;;;0.50;;
15043;SDS011;7619;48.562;8.910;2023-11-21T03:58:35;2.83;;;0.77;;
15043;SDS011;7619;48.562;8.910;2023-11-21T04:01:04;1.23;;;0.63;;
15043;SDS011;7619;48.562;8.910;2023-11-21T04:03:32;0.80;;;0.70;;
15043;SDS011;7619;48.562;8.910;2023-11-21T04:06:00;1.37;;;0.83;;
15043;SDS011;7619;48.562;8.910;2023-11-21T04:08:28;0.97;;;0.70;;
15043;SDS011;7619;48.562;8.910;2023-11-21T04:10:56;0.40;;;0.40;;
15043;SDS011;7619;48.562;8.910;2023-11-21T04:13:25;0.30;;;0.30;;
15043;SDS011;7619;48.562;8.910;2023-11-21T04:15:53;0.80;;;0.57;;
15043;SDS011;7619;48.562;8.910;2023-11-21T04:18:21;0.30;;;0.30;;
15043;SDS011;7619;48.562;8.910;2023-11-21T04:20:49;0.57;;;0.57;;
15043;SDS011;7619;48.562;8.910;2023-11-21T04:23:18;1.83;;;0.60;;
15043;SDS011;7619;48.562;8.910;2023-11-21T04:25:46;0.60;;;0.53;;
15043;SDS011;7619;48.562;8.910;2023-11-21T04:28:14;0.40;;;0.40;;
15043;SDS011;7619;48.562;8.910;2023-11-21T04:30:42;4.03;;;0.50;;
15043;SDS011;7619;48.562;8.910;2023-11-21T04:33:10;1.20;;;0.53;;
15043;SDS011;7619;48.562;8.910;2023-11-21T04:35:39;0.77;;;0.60;;
15043;SDS011;7619;48.562;8.910;2023-11-21T04:38:07;1.03;;;0.50;;
15043;SDS011;7619;48.562;8.910;2023-11-21T04:40:35;0.23;;;0.23;;
15043;SDS011;7619;48.562;8.910;2023-11-21T04:43:03;0.23;;;0.20;;
15043;SDS011;7619;48.562;8.910;2023-11-21T04:45:31;2.83;;;0.33;;
15043;SDS011;7619;48.562;8.910;2023-11-21T04:48:00;4.03;;;0.47;;
15043;SDS011;7619;48.562;8.910;2023-11-21T04:50:28;0.40;;;0.40;;
15043;SDS011;7619;48.562;8.910;2023-11-21T04:52:56;3.13;;;0.40;;
15043;SDS011;7619;48.562;8.910;2023-11-21T04:55:24;1.07;;;0.70;;
15043;SDS011;7619;48.562;8.910;2023-11-21T04:57:54;2.30;;;0.60;;
15043;SDS011;7619;48.562;8.910;2023-11-21T05:00:23;0.47;;;0.47;;
15043;SDS011;7619;48.562;8.910;2023-11-21T05:02:51;1.20;;;0.40;;
15043;SDS011;7619;48.562;8.910;2023-11-21T05:05:19;1.87;;;0.53;;
15043;SDS011;7619;48.562;8.910;2023-11-21T05:07:48;1.20;;;0.50;;
15043;SDS011;7619;48.562;8.910;2023-11-21T05:10:16;0.13;;;0.13;;
15043;SDS011;7619;48.562;8.910;2023-11-21T05:12:44;0.60;;;0.30;;
15043;SDS011;7619;48.562;8.910;2023-11-21T05:15:14;1.90;;;0.50;;
15043;SDS011;7619;48.562;8.910;2023-11-21T05:17:42;0.30;;;0.30;;
15043;SDS011;7619;48.562;8.910;2023-11-21T05:20:12;0.87;;;0.70;;
15043;SDS011;7619;48.562;8.910;2023-11-21T05:22:41;3.30;;;0.97;;
15043;SDS011;7619;48.562;8.910;2023-11-21T05:25:09;0.43;;;0.30;;
15043;SDS011;7619;48.562;8.910;2023-11-21T05:27:38;0.77;;;0.43;;
15043;SDS011;7619;48.562;8.910;2023-11-21T05:30:07;2.77;;;0.27;;
15043;SDS011;7619;48.562;8.910;2023-11-21T05:32:37;0.57;;;0.47;;
15043;SDS011;7619;48.562;8.910;2023-11-21T05:35:06;2.73;;;0.50;;
15043;SDS011;7619;48.562;8.910;2023-11-21T05:37:36;0.60;;;0.60;;
15043;SDS011;7619;48.562;8.910;2023-11-21T05:40:07;0.20;;;0.20;;
15043;SDS011;7619;48.562;8.910;2023-11-21T05:42:35;0.87;;;0.60;;
15043;SDS011;7619;48.562;8.910;2023-11-21T05:45:05;0.87;;;0.87;;
15043;SDS011;7619;48.562;8.910;2023-11-21T05:47:37;0.70;;;0.40;;
15043;SDS011;7619;48.562;8.910;2023-11-21T05:50:07;0.33;;;0.33;;
15043;SDS011;7619;48.562;8.910;2023-11-21T05:52:37;0.50;;;0.50;;
15043;SDS011;7619;48.562;8.910;2023-11-21T05:55:06;1.13;;;0.57;;
15043;SDS011;7619;48.562;8.910;2023-11-21T05:57:34;0.60;;;0.57;;
15043;SDS011;7619;48.562;8.910;2023-11-21T06:00:04;2.83;;;0.87;;
15043;SDS011;7619;48.562;8.910;2023-11-21T06:02:38;1.80;;;0.60;;
15043;SDS011;7619;48.562;8.910;2023-11-21T06:05:08;0.70;;;0.40;;
15043;SDS011;7619;48.562;8.910;2023-11-21T06:07:37;0.77;;;0.67;;
15043;SDS011;7619;48.562;8.910;2023-11-21T06:10:07;3.60;;;0.57;;
15043;SDS011;7619;48.562;8.910;2023-11-21T06:12:36;1.50;;;0.27;;
15043;SDS011;7619;48.562;8.910;2023-11-21T06:15:04;1.87;;;0.60;;
15043;SDS011;7619;48.562;8.910;2023-11-21T06:17:34;1.37;;;0.43;;
15043;SDS011;7619;48.562;8.910;2023-11-21T06:20:04;3.20;;;0.90;;
15043;SDS011;7619;48.562;8.910;2023-11-21T06:22:34;1.07;;;0.60;;
15043;SDS011;7619;48.562;8.910;2023-11-21T06:25:03;0.70;;;0.60;;
15043;SDS011;7619;48.562;8.910;2023-11-21T06:27:32;0.97;;;0.60;;
15043;SDS011;7619;48.562;8.910;2023-11-21T06:30:01;1.00;;;0.53;;
15043;SDS011;7619;48.562;8.910;2023-11-21T06:32:29;2.00;;;0.70;;
15043;SDS011;7619;48.562;8.910;2023-11-21T06:34:58;0.87;;;0.80;;
15043;SDS011;7619;48.562;8.910;2023-11-21T06:37:27;1.50;;;0.70;;
15043;SDS011;7619;48.562;8.910;2023-11-21T06:39:55;1.37;;;0.70;;
15043;SDS011;7619;48.562;8.910;2023-11-21T06:42:25;0.50;;;0.50;;
15043;SDS011;7619;48.562;8.910;2023-11-21T06:44:53;2.67;;;0.77;;
15043;SDS011;7619;48.562;8.910;2023-11-21T06:47:23;0.70;;;0.60;;
15043;SDS011;7619;48.562;8.910;2023-11-21T06:49:52;1.43;;;0.90;;
15043;SDS011;7619;48.562;8.910;2023-11-21T06:57:33;1.37;;;0.90;;
15043;SDS011;7619;48.562;8.910;2023-11-21T07:00:02;2.47;;;0.97;;
15043;SDS011;7619;48.562;8.910;2023-11-21T07:02:31;1.17;;;0.80;;
15043;SDS011;7619;48.562;8.910;2023-11-21T07:04:59;0.87;;;0.63;;
15043;SDS011;7619;48.562;8.910;2023-11-21T07:07:27;4.27;;;0.83;;
15043;SDS011;7619;48.562;8.910;2023-11-21T07:09:55;2.50;;;1.20;;
15043;SDS011;7619;48.562;8.910;2023-11-21T07:12:24;1.40;;;1.30;;
15043;SDS011;7619;48.562;8.910;2023-11-21T07:14:52;1.73;;;1.50;;
15043;SDS011;7619;48.562;8.910;2023-11-21T07:17:20;1.80;;;1.30;;
15043;SDS011;7619;48.562;8.910;2023-11-21T07:19:50;1.40;;;1.10;;
15043;SDS011;7619;48.562;8.910;2023-11-21T07:22:18;1.43;;;1.03;;
15043;SDS011;7619;48.562;8.910;2023-11-21T07:24:49;1.03;;;0.97;;
15043;SDS011;7619;48.562;8.910;2023-11-21T07:27:18;1.97;;;0.80;;
15043;SDS011;7619;48.562;8.910;2023-11-21T07:29:46;2.10;;;0.90;;
15043;SDS011;7619;48.562;8.910;2023-11-21T07:32:15;2.20;;;1.10;;
15043;SDS011;7619;48.562;8.910;2023-11-21T07:34:43;3.33;;;0.83;;
15043;SDS011;7619;48.562;8.910;2023-11-21T07:37:11;2.10;;;1.07;;
15043;SDS011;7619;48.562;8.910;2023-11-21T07:39:39;1.20;;;0.67;;
15043;SDS011;7619;48.562;8.910;2023-11-21T07:42:09;1.70;;;0.80;;
15043;SDS011;7619;48.562;8.910;2023-11-21T07:44:37;5.17;;;1.10;;
15043;SDS011;7619;48.562;8.910;2023-11-21T07:47:06;1.53;;;1.10;;
15043;SDS011;7619;48.562;8.910;2023-11-21T07:49:34;1.70;;;1.10;;
15043;SDS011;7619;48.562;8.910;2023-11-21T07:52:02;1.43;;;1.00;;
15043;SDS011;7619;48.562;8.910;2023-11-21T07:54:31;2.93;;;1.10;;
15043;SDS011;7619;48.562;8.910;2023-11-21T07:57:01;0.90;;;0.70;;
15043;SDS011;7619;48.562;8.910;2023-11-21T07:59:31;2.63;;;0.90;;
15043;SDS011;7619;48.562;8.910;2023-11-21T08:01:59;3.03;;;1.27;;
15043;SDS011;7619;48.562;8.910;2023-11-21T08:04:27;4.50;;;1.13;;
15043;SDS011;7619;48.562;8.910;2023-11-21T08:06:55;1.23;;;1.00;;
15043;SDS011;7619;48.562;8.910;2023-11-21T08:09:23;0.83;;;0.83;;
15043;SDS011;7619;48.562;8.910;2023-11-21T08:11:53;3.03;;;0.93;;
15043;SDS011;7619;48.562;8.910;2023-11-21T08:14:21;2.93;;;1.10;;
15043;SDS011;7619;48.562;8.910;2023-11-21T08:16:51;3.77;;;0.83;;
15043;SDS011;7619;48.562;8.910;2023-11-21T08:19:21;0.93;;;0.80;;
15043;SDS011;7619;48.562;8.910;2023-11-21T08:21:51;3.33;;;1.23;;
15043;SDS011;7619;48.562;8.910;2023-11-21T08:24:21;0.70;;;0.70;;
15043;SDS011;7619;48.562;8.910;2023-11-21T08:26:49;0.93;;;0.80;;
15043;SDS011;7619;48.562;8.910;2023-11-21T08:29:19;1.10;;;0.70;;
15043;SDS011;7619;48.562;8.910;2023-11-21T08:31:47;2.20;;;1.37;;
15043;SDS011;7619;48.562;8.910;2023-11-21T08:34:15;2.40;;;2.20;;
15043;SDS011;7619;48.562;8.910;2023-11-21T08:36:44;3.53;;;2.50;;
15043;SDS011;7619;48.562;8.910;2023-11-21T08:39:13;1.70;;;1.57;;
15043;SDS011;7619;48.562;8.910;2023-11-21T08:41:41;1.70;;;1.10;;
15043;SDS011;7619;48.562;8.910;2023-11-21T08:44:09;1.50;;;0.77;;
15043;SDS011;7619;48.562;8.910;2023-11-21T08:46:37;1.70;;;0.83;;
15043;SDS011;7619;48.562;8.910;2023-11-21T08:49:06;1.30;;;0.90;;
15043;SDS011;7619;48.562;8.910;2023-11-21T08:51:34;0.67;;;0.67;;
15043;SDS011;7619;48.562;8.910;2023-11-21T08:54:03;2.00;;;0.70;;
15043;SDS011;7619;48.562;8.910;2023-11-21T08:56:33;0.60;;;0.60;;
15043;SDS011;7619;48.562;8.910;2023-11-21T08:59:01;0.77;;;0.70;;
15043;SDS011;7619;48.562;8.910;2023-11-21T09:01:39;1.00;;;0.70;;
15043;SDS011;7619;48.562;8.910;2023-11-21T09:04:13;1.37;;;0.70;;
15043;SDS011;7619;48.562;8.910;2023-11-21T09:06:41;1.80;;;0.80;;
15043;SDS011;7619;48.562;8.910;2023-11-21T09:09:10;0.47;;;0.47;;
15043;SDS011;7619;48.562;8.910;2023-11-21T09:12:00;1.70;;;0.97;;
15043;SDS011;7619;48.562;8.910;2023-11-21T09:14:33;0.67;;;0.50;;
15043;SDS011;7619;48.562;8.910;2023-11-21T09:17:02;0.70;;;0.57;;
15043;SDS011;7619;48.562;8.910;2023-11-21T09:19:30;1.30;;;0.70;;
15043;SDS011;7619;48.562;8.910;2023-11-21T09:22:05;0.67;;;0.67;;
15043;SDS011;7619;48.562;8.910;2023-11-21T09:24:33;3.80;;;0.70;;
15043;SDS011;7619;48.562;8.910;2023-11-21T09:27:02;1.23;;;0.87;;
15043;SDS011;7619;48.562;8.910;2023-11-21T09:29:58;0.60;;;0.60;;
15043;SDS011;7619;48.562;8.910;2023-11-21T09:32:36;0.80;;;0.80;;
15043;SDS011;7619;48.562;8.910;2023-11-21T09:35:10;5.07;;;0.60;;
15043;SDS011;7619;48.562;8.910;2023-11-21T09:37:40;1.87;;;0.63;;
15043;SDS011;7619;48.562;8.910;2023-11-21T09:40:09;1.33;;;0.90;;
15043;SDS011;7619;48.562;8.910;2023-11-21T09:42:42;0.70;;;0.70;;
15043;SDS011;7619;48.562;8.910;2023-11-21T09:45:11;2.57;;;1.70;;
15043;SDS011;7619;48.562;8.910;2023-11-21T09:47:40;3.43;;;1.10;;
15043;SDS011;7619;48.562;8.910;2023-11-21T09:50:10;1.53;;;1.27;;
15043;SDS011;7619;48.562;8.910;2023-11-21T09:52:41;6.40;;;1.20;;
15043;SDS011;7619;48.562;8.910;2023-11-21T09:55:09;5.07;;;0.97;;
15043;SDS011;7619;48.562;8.910;2023-11-21T09:57:40;5.47;;;1.03;;
15043;SDS011;7619;48.562;8.910;2023-11-21T10:00:09;1.20;;;1.07;;
15043;SDS011;7619;48.562;8.910;2023-11-21T10:02:38;1.10;;;0.90;;
15043;SDS011;7619;48.562;8.910;2023-11-21T10:05:07;1.63;;;1.00;;
15043;SDS011;7619;48.562;8.910;2023-11-21T10:07:37;1.17;;;1.00;;
15043;SDS011;7619;48.562;8.910;2023-11-21T10:10:06;1.40;;;0.90;;
15043;SDS011;7619;48.562;8.910;2023-11-21T10:12:35;1.20;;;1.03;;
15043;SDS011;7619;48.562;8.910;2023-11-21T10:15:08;2.03;;;1.30;;
15043;SDS011;7619;48.562;8.910;2023-11-21T10:17:38;1.97;;;1.40;;
15043;SDS011;7619;48.562;8.910;2023-11-21T10:20:10;1.17;;;0.90;;
15043;SDS011;7619;48.562;8.910;2023-11-21T10:22:40;8.23;;;0.90;;
15043;SDS011;7619;48.562;8.910;2023-11-21T10:25:09;1.33;;;0.90;;
15043;SDS011;7619;48.562;8.910;2023-11-21T10:27:37;3.13;;;0.83;;
15043;SDS011;7619;48.562;8.910;2023-11-21T10:30:07;1.60;;;1.00;;
15043;SDS011;7619;48.562;8.910;2023-11-21T10:32:37;1.67;;;1.07;;
15043;SDS011;7619;48.562;8.910;2023-11-21T10:35:05;1.27;;;0.83;;
15043;SDS011;7619;48.562;8.910;2023-11-21T10:37:35;2.27;;;1.00;;
15043;SDS011;7619;48.562;8.910;2023-11-21T10:40:07;5.90;;;1.43;;
15043;SDS011;7619;48.562;8.910;2023-11-21T10:42:38;1.33;;;1.10;;
15043;SDS011;7619;48.562;8.910;2023-11-21T10:45:07;2.90;;;1.17;;
15043;SDS011;7619;48.562;8.910;2023-11-21T10:47:39;5.47;;;1.90;;
15043;SDS011;7619;48.562;8.910;2023-11-21T10:50:08;4.13;;;1.20;;
15043;SDS011;7619;48.562;8.910;2023-11-21T10:52:38;5.33;;;1.30;;
15043;SDS011;7619;48.562;8.910;2023-11-21T10:55:16;1.90;;;1.37;;
15043;SDS011;7619;48.562;8.910;2023-11-21T10:57:46;1.67;;;1.27;;
15043;SDS011;7619;48.562;8.910;2023-11-21T11:00:16;9.00;;;1.43;;
15043;SDS011;7619;48.562;8.910;2023-11-21T11:02:47;11.43;;;1.90;;
15043;SDS011;7619;48.562;8.910;2023-11-21T11:05:17;1.27;;;1.10;;
15043;SDS011;7619;48.562;8.910;2023-11-21T11:07:47;5.30;;;1.37;;
15043;SDS011;7619;48.562;8.910;2023-11-21T11:10:17;4.53;;;1.20;;
15043;SDS011;7619;48.562;8.910;2023-11-21T11:12:49;1.10;;;1.10;;
15043;SDS011;7619;48.562;8.910;2023-11-21T11:15:19;1.57;;;1.47;;
15043;SDS011;7619;48.562;8.910;2023-11-21T11:17:48;4.73;;;1.27;;
15043;SDS011;7619;48.562;8.910;2023-11-21T11:20:17;2.20;;;1.60;;
15043;SDS011;7619;48.562;8.910;2023-11-21T11:22:50;1.63;;;1.00;;
15043;SDS011;7619;48.562;8.910;2023-11-21T11:25:21;5.03;;;1.57;;
15043;SDS011;7619;48.562;8.910;2023-11-21T11:27:52;1.10;;;1.00;;
15043;SDS011;7619;48.562;8.910;2023-11-21T11:30:24;5.97;;;1.10;;
15043;SDS011;7619;48.562;8.910;2023-11-21T11:32:53;3.47;;;1.70;;
15043;SDS011;7619;48.562;8.910;2023-11-21T11:35:24;3.53;;;1.10;;
15043;SDS011;7619;48.562;8.910;2023-11-21T11:37:54;0.83;;;0.80;;
15043;SDS011;7619;48.562;8.910;2023-11-21T11:40:22;0.90;;;0.90;;
15043;SDS011;7619;48.562;8.910;2023-11-21T11:42:57;1.87;;;1.20;;
15043;SDS011;7619;48.562;8.910;2023-11-21T11:45:31;3.87;;;0.90;;
15043;SDS011;7619;48.562;8.910;2023-11-21T11:47:57;3.03;;;1.10;;
15043;SDS011;7619;48.562;8.910;2023-11-21T11:50:25;1.03;;;0.90;;
15043;SDS011;7619;48.562;8.910;2023-11-21T11:52:53;6.57;;;1.30;;
15043;SDS011;7619;48.562;8.910;2023-11-21T11:55:24;1.17;;;1.07;;
15043;SDS011;7619;48.562;8.910;2023-11-21T11:57:54;2.50;;;1.47;;
15043;SDS011;7619;48.562;8.910;2023-11-21T12:00:28;1.30;;;1.20;;
15043;SDS011;7619;48.562;8.910;2023-11-21T12:02:53;1.70;;;1.60;;
15043;SDS011;7619;48.562;8.910;2023-11-21T12:05:21;3.10;;;1.37;;
15043;SDS011;7619;48.562;8.910;2023-11-21T12:07:51;1.40;;;1.30;;
15043;SDS011;7619;48.562;8.910;2023-11-21T12:10:21;0.80;;;0.80;;
15043;SDS011;7619;48.562;8.910;2023-11-21T12:13:06;1.10;;;0.90;;
15043;SDS011;7619;48.562;8.910;2023-11-21T12:16:08;1.33;;;0.90;;
15043;SDS011;7619;48.562;8.910;2023-11-21T12:18:43;1.10;;;1.00;;
15043;SDS011;7619;48.562;8.910;2023-11-21T12:21:13;3.40;;;1.07;;
15043;SDS011;7619;48.562;8.910;2023-11-21T12:23:41;1.17;;;0.93;;
15043;SDS011;7619;48.562;8.910;2023-11-21T12:26:10;0.70;;;0.70;;
15043;SDS011;7619;48.562;8.910;2023-11-21T12:28:38;0.90;;;0.90;;
15043;SDS011;7619;48.562;8.910;2023-11-21T12:31:06;0.70;;;0.70;;
15043;SDS011;7619;48.562;8.910;2023-11-21T12:33:34;0.97;;;0.87;;
15043;SDS011;7619;48.562;8.910;2023-11-21T12:36:03;1.90;;;1.13;;
15043;SDS011;7619;48.562;8.910;2023-11-21T12:38:34;1.10;;;1.00;;
15043;SDS011;7619;48.562;8.910;2023-11-21T12:41:02;1.60;;;0.90;;
15043;SDS011;7619;48.562;8.910;2023-11-21T12:43:31;1.07;;;0.80;;
15043;SDS011;7619;48.562;8.910;2023-11-21T12:46:05;1.53;;;1.10;;
15043;SDS011;7619;48.562;8.910;2023-11-21T12:48:33;2.03;;;0.90;;
15043;SDS011;7619;48.562;8.910;2023-11-21T12:51:02;0.87;;;0.87;;
15043;SDS011;7619;48.562;8.910;2023-11-21T12:53:30;1.23;;;1.10;;
15043;SDS011;7619;48.562;8.910;2023-11-21T12:56:00;1.00;;;1.00;;
15043;SDS011;7619;48.562;8.910;2023-11-21T12:58:28;0.80;;;0.80;;
15043;SDS011;7619;48.562;8.910;2023-11-21T13:00:56;1.23;;;1.13;;
15043;SDS011;7619;48.562;8.910;2023-11-21T13:03:25;1.37;;;1.20;;
15043;SDS011;7619;48.562;8.910;2023-11-21T13:05:53;1.00;;;1.00;;
15043;SDS011;7619;48.562;8.910;2023-11-21T13:08:24;1.40;;;1.30;;
15043;SDS011;7619;48.562;8.910;2023-11-21T13:10:53;2.10;;;1.63;;
15043;SDS011;7619;48.562;8.910;2023-11-21T13:13:22;1.70;;;1.60;;
15043;SDS011;7619;48.562;8.910;2023-11-21T13:15:52;1.53;;;1.43;;
15043;SDS011;7619;48.562;8.910;2023-11-21T13:18:24;1.80;;;1.70;;
15043;SDS011;7619;48.562;8.910;2023-11-21T13:20:58;5.20;;;2.13;;
15043;SDS011;7619;48.562;8.910;2023-11-21T13:23:36;2.83;;;1.77;;
15043;SDS011;7619;48.562;8.910;2023-11-21T13:26:16;2.97;;;1.67;;
15043;SDS011;7619;48.562;8.910;2023-11-21T13:28:54;2.37;;;1.87;;
15043;SDS011;7619;48.562;8.910;2023-11-21T13:31:32;2.17;;;1.97;;
15043;SDS011;7619;48.562;8.910;2023-11-21T13:34:06;2.97;;;2.00;;
15043;SDS011;7619;48.562;8.910;2023-11-21T13:36:44;3.53;;;2.13;;
15043;SDS011;7619;48.562;8.910;2023-11-21T13:39:17;2.23;;;1.93;;
15043;SDS011;7619;48.562;8.910;2023-11-21T13:41:50;2.20;;;2.00;;
15043;SDS011;7619;48.562;8.910;2023-11-21T13:44:20;2.30;;;2.00;;
15043;SDS011;7619;48.562;8.910;2023-11-21T13:46:55;3.57;;;2.47;;
15043;SDS011;7619;48.562;8.910;2023-11-21T13:49:25;2.93;;;2.20;;
15043;SDS011;7619;48.562;8.910;2023-11-21T13:51:54;2.53;;;2.33;;
15043;SDS011;7619;48.562;8.910;2023-11-21T13:54:23;3.27;;;2.30;;
15043;SDS011;7619;48.562;8.910;2023-11-21T13:56:52;3.10;;;2.27;;
15043;SDS011;7619;48.562;8.910;2023-11-21T13:59:21;2.00;;;1.80;;
15043;SDS011;7619;48.562;8.910;2023-11-21T14:01:51;2.20;;;2.00;;
15043;SDS011;7619;48.562;8.910;2023-11-21T14:04:22;2.43;;;2.07;;
15043;SDS011;7619;48.562;8.910;2023-11-21T14:07:02;2.33;;;2.10;;
15043;SDS011;7619;48.562;8.910;2023-11-21T14:09:35;4.30;;;2.57;;
15043;SDS011;7619;48.562;8.910;2023-11-21T14:12:05;2.73;;;2.10;;
15043;SDS011;7619;48.562;8.910;2023-11-21T14:14:34;2.50;;;2.30;;
15043;SDS011;7619;48.562;8.910;2023-11-21T14:17:03;2.53;;;2.10;;
15043;SDS011;7619;48.562;8.910;2023-11-21T14:19:33;6.63;;;2.40;;
15043;SDS011;7619;48.562;8.910;2023-11-21T14:22:03;1.50;;;1.33;;
15043;SDS011;7619;48.562;8.910;2023-11-21T14:24:31;1.67;;;1.20;;
15043;SDS011;7619;48.562;8.910;2023-11-21T14:26:59;1.17;;;1.07;;
15043;SDS011;7619;48.562;8.910;2023-11-21T14:29:28;1.07;;;0.97;;
15043;SDS011;7619;48.562;8.910;2023-11-21T14:31:56;2.63;;;0.73;;
15043;SDS011;7619;48.562;8.910;2023-11-21T14:34:25;0.83;;;0.60;;
15043;SDS011;7619;48.562;8.910;2023-11-21T14:36:53;0.70;;;0.70;;
15043;SDS011;7619;48.562;8.910;2023-11-21T14:39:22;1.67;;;0.60;;
15043;SDS011;7619;48.562;8.910;2023-11-21T14:41:50;0.80;;;0.80;;
15043;SDS011;7619;48.562;8.910;2023-11-21T14:44:19;1.23;;;0.70;;
15043;SDS011;7619;48.562;8.910;2023-11-21T14:46:49;0.57;;;0.57;;
15043;SDS011;7619;48.562;8.910;2023-11-21T14:49:18;1.30;;;0.80;;
15043;SDS011;7619;48.562;8.910;2023-11-21T14:51:47;0.60;;;0.60;;
15043;SDS011;7619;48.562;8.910;2023-11-21T14:54:27;0.57;;;0.57;;
15043;SDS011;7619;48.562;8.910;2023-11-21T14:57:08;1.53;;;1.20;;
15043;SDS011;7619;48.562;8.910;2023-11-21T14:59:42;1.53;;;0.90;;
15043;SDS011;7619;48.562;8.910;2023-11-21T15:02:08;0.70;;;0.70;;
15043;SDS011;7619;48.562;8.910;2023-11-21T15:04:42;0.90;;;0.80;;
15043;SDS011;7619;48.562;8.910;2023-11-21T15:07:10;1.83;;;1.13;;
15043;SDS011;7619;48.562;8.910;2023-11-21T15:09:38;2.10;;;1.00;;
15043;SDS011;7619;48.562;8.910;2023-11-21T15:12:08;1.10;;;1.00;;
15043;SDS011;7619;48.562;8.910;2023-11-21T15:14:42;1.90;;;0.90;;
15043;SDS011;7619;48.562;8.910;2023-11-21T15:17:12;1.10;;;1.00;;
15043;SDS011;7619;48.562;8.910;2023-11-21T15:19:45;1.47;;;1.37;;